sensor_id;sensor_type;location;lat;lon;timestamp;temperature;humidity
6357;DHT22;3211;53.452;-2.264;2022-07-23T00:00:35;16.70;99.90
6357;DHT22;3211;53.452;-2.264;2022-07-23T00:03:17;16.70;99.90
6357;DHT22;3211;53.452;-2.264;2022-07-23T00:05:59;16.70;99.90
6357;DHT22;3211;53.452;-2.264;2022-07-23T00:08:41;16.70;99.90
6357;DHT22;3211;53.452;-2.264;2022-07-23T00:11:24;16.70;99.90
6357;DHT22;3211;53.452;-2.264;2022-07-23T00:14:06;16.80;99.90
6357;DHT22;3211;53.452;-2.264;2022-07-23T00:16:48;16.70;99.90
6357;DHT22;3211;53.452;-2.264;2022-07-23T00:19:30;16.80;99.90
6357;DHT22;3211;53.452;-2.264;2022-07-23T00:22:12;16.80;99.90
6357;DHT22;3211;53.452;-2.264;2022-07-23T00:24:54;16.80;99.90
6357;DHT22;3211;53.452;-2.264;2022-07-23T00:27:38;16.80;99.90
6357;DHT22;3211;53.452;-2.264;2022-07-23T00:30:19;16.80;99.90
6357;DHT22;3211;53.452;-2.264;2022-07-23T00:33:04;16.70;99.90
6357;DHT22;3211;53.452;-2.264;2022-07-23T00:35:46;16.60;99.90
6357;DHT22;3211;53.452;-2.264;2022-07-23T00:38:28;16.80;99.90
6357;DHT22;3211;53.452;-2.264;2022-07-23T00:41:10;16.70;99.90
6357;DHT22;3211;53.452;-2.264;2022-07-23T00:43:53;16.70;99.90
6357;DHT22;3211;53.452;-2.264;2022-07-23T00:46:35;16.70;99.90
6357;DHT22;3211;53.452;-2.264;2022-07-23T00:49:17;16.60;99.90
6357;DHT22;3211;53.452;-2.264;2022-07-23T00:52:01;16.80;99.90
6357;DHT22;3211;53.452;-2.264;2022-07-23T00:54:43;16.70;99.90
6357;DHT22;3211;53.452;-2.264;2022-07-23T00:57:25;16.70;99.90
6357;DHT22;3211;53.452;-2.264;2022-07-23T01:00:11;16.70;99.90
6357;DHT22;3211;53.452;-2.264;2022-07-23T01:02:53;16.70;99.90
6357;DHT22;3211;53.452;-2.264;2022-07-23T01:05:35;16.70;99.90
6357;DHT22;3211;53.452;-2.264;2022-07-23T01:08:17;16.80;99.90
6357;DHT22;3211;53.452;-2.264;2022-07-23T01:10:59;16.70;99.90
6357;DHT22;3211;53.452;-2.264;2022-07-23T01:13:42;16.70;99.90
6357;DHT22;3211;53.452;-2.264;2022-07-23T01:16:25;16.70;99.90
6357;DHT22;3211;53.452;-2.264;2022-07-23T01:19:07;16.70;99.90
6357;DHT22;3211;53.452;-2.264;2022-07-23T01:21:51;16.70;99.90
6357;DHT22;3211;53.452;-2.264;2022-07-23T01:24:35;16.70;99.90
6357;DHT22;3211;53.452;-2.264;2022-07-23T01:27:16;16.70;99.90
6357;DHT22;3211;53.452;-2.264;2022-07-23T01:30:00;16.70;99.90
6357;DHT22;3211;53.452;-2.264;2022-07-23T01:32:42;16.80;99.90
6357;DHT22;3211;53.452;-2.264;2022-07-23T01:35:24;16.70;99.90
6357;DHT22;3211;53.452;-2.264;2022-07-23T01:38:06;16.70;99.90
6357;DHT22;3211;53.452;-2.264;2022-07-23T01:40:49;16.60;99.90
6357;DHT22;3211;53.452;-2.264;2022-07-23T01:43:31;16.70;99.90
6357;DHT22;3211;53.452;-2.264;2022-07-23T01:46:13;16.70;99.90
6357;DHT22;3211;53.452;-2.264;2022-07-23T01:48:55;16.80;99.90
6357;DHT22;3211;53.452;-2.264;2022-07-23T01:51:37;16.80;99.90
6357;DHT22;3211;53.452;-2.264;2022-07-23T01:54:39;16.80;99.90
6357;DHT22;3211;53.452;-2.264;2022-07-23T01:57:23;16.70;99.90
6357;DHT22;3211;53.452;-2.264;2022-07-23T02:00:05;16.70;99.90
6357;DHT22;3211;53.452;-2.264;2022-07-23T02:02:48;16.60;99.90
6357;DHT22;3211;53.452;-2.264;2022-07-23T02:05:30;16.60;99.90
6357;DHT22;3211;53.452;-2.264;2022-07-23T02:08:13;16.60;99.90
6357;DHT22;3211;53.452;-2.264;2022-07-23T02:10:55;16.50;99.90
6357;DHT22;3211;53.452;-2.264;2022-07-23T02:13:38;16.50;99.90
6357;DHT22;3211;53.452;-2.264;2022-07-23T02:16:20;16.40;99.90
6357;DHT22;3211;53.452;-2.264;2022-07-23T02:19:02;16.40;99.90
6357;DHT22;3211;53.452;-2.264;2022-07-23T02:21:44;16.40;99.90
6357;DHT22;3211;53.452;-2.264;2022-07-23T02:24:26;16.30;99.90
6357;DHT22;3211;53.452;-2.264;2022-07-23T02:27:08;16.30;99.90
6357;DHT22;3211;53.452;-2.264;2022-07-23T02:29:52;16.30;99.90
6357;DHT22;3211;53.452;-2.264;2022-07-23T02:32:34;16.30;99.90
6357;DHT22;3211;53.452;-2.264;2022-07-23T02:35:16;16.30;99.90
6357;DHT22;3211;53.452;-2.264;2022-07-23T02:37:58;16.40;99.90
6357;DHT22;3211;53.452;-2.264;2022-07-23T02:40:40;16.30;99.90
6357;DHT22;3211;53.452;-2.264;2022-07-23T02:43:22;16.20;99.90
6357;DHT22;3211;53.452;-2.264;2022-07-23T02:46:05;16.20;99.90
6357;DHT22;3211;53.452;-2.264;2022-07-23T02:48:48;16.10;99.90
6357;DHT22;3211;53.452;-2.264;2022-07-23T02:51:30;16.00;99.90
6357;DHT22;3211;53.452;-2.264;2022-07-23T02:54:12;15.90;99.90
6357;DHT22;3211;53.452;-2.264;2022-07-23T02:56:54;16.00;99.90
6357;DHT22;3211;53.452;-2.264;2022-07-23T02:59:36;15.90;99.90
6357;DHT22;3211;53.452;-2.264;2022-07-23T03:02:19;15.90;99.90
6357;DHT22;3211;53.452;-2.264;2022-07-23T03:05:01;15.90;99.90
6357;DHT22;3211;53.452;-2.264;2022-07-23T03:07:43;15.80;99.90
6357;DHT22;3211;53.452;-2.264;2022-07-23T03:10:25;15.80;99.90
6357;DHT22;3211;53.452;-2.264;2022-07-23T03:13:07;15.70;99.90
6357;DHT22;3211;53.452;-2.264;2022-07-23T03:15:49;15.70;99.90
6357;DHT22;3211;53.452;-2.264;2022-07-23T03:18:33;15.60;99.90
6357;DHT22;3211;53.452;-2.264;2022-07-23T03:21:15;15.60;99.90
6357;DHT22;3211;53.452;-2.264;2022-07-23T03:23:57;15.50;99.90
6357;DHT22;3211;53.452;-2.264;2022-07-23T03:26:39;15.50;99.90
6357;DHT22;3211;53.452;-2.264;2022-07-23T03:29:21;15.50;99.90
6357;DHT22;3211;53.452;-2.264;2022-07-23T03:32:03;15.50;99.90
6357;DHT22;3211;53.452;-2.264;2022-07-23T03:34:47;15.50;99.90
6357;DHT22;3211;53.452;-2.264;2022-07-23T03:37:29;15.50;99.90
6357;DHT22;3211;53.452;-2.264;2022-07-23T03:40:11;15.50;99.90
6357;DHT22;3211;53.452;-2.264;2022-07-23T03:42:53;15.50;99.90
6357;DHT22;3211;53.452;-2.264;2022-07-23T03:45:35;15.40;99.90
6357;DHT22;3211;53.452;-2.264;2022-07-23T03:48:17;15.30;99.90
6357;DHT22;3211;53.452;-2.264;2022-07-23T03:51:01;15.30;99.90
6357;DHT22;3211;53.452;-2.264;2022-07-23T03:53:43;15.30;99.90
6357;DHT22;3211;53.452;-2.264;2022-07-23T03:56:25;15.20;99.90
6357;DHT22;3211;53.452;-2.264;2022-07-23T03:59:07;15.20;99.90
6357;DHT22;3211;53.452;-2.264;2022-07-23T04:01:49;15.10;99.90
6357;DHT22;3211;53.452;-2.264;2022-07-23T04:04:31;15.10;99.90
6357;DHT22;3211;53.452;-2.264;2022-07-23T04:07:15;15.10;99.90
6357;DHT22;3211;53.452;-2.264;2022-07-23T04:09:58;15.00;99.90
6357;DHT22;3211;53.452;-2.264;2022-07-23T04:12:40;15.00;99.90
6357;DHT22;3211;53.452;-2.264;2022-07-23T04:15:22;15.00;99.90
6357;DHT22;3211;53.452;-2.264;2022-07-23T04:18:04;14.90;99.90
6357;DHT22;3211;53.452;-2.264;2022-07-23T04:20:46;14.90;99.90
6357;DHT22;3211;53.452;-2.264;2022-07-23T04:23:29;14.90;99.90
6357;DHT22;3211;53.452;-2.264;2022-07-23T04:26:11;14.90;99.90
6357;DHT22;3211;53.452;-2.264;2022-07-23T04:28:53;14.90;99.90
6357;DHT22;3211;53.452;-2.264;2022-07-23T04:31:35;14.90;99.90
6357;DHT22;3211;53.452;-2.264;2022-07-23T04:34:17;14.90;99.90
6357;DHT22;3211;53.452;-2.264;2022-07-23T04:36:59;15.00;99.90
6357;DHT22;3211;53.452;-2.264;2022-07-23T04:39:42;15.00;99.90
6357;DHT22;3211;53.452;-2.264;2022-07-23T04:42:25;15.00;99.90
6357;DHT22;3211;53.452;-2.264;2022-07-23T04:45:08;15.00;99.90
6357;DHT22;3211;53.452;-2.264;2022-07-23T04:47:50;15.00;99.90
6357;DHT22;3211;53.452;-2.264;2022-07-23T04:50:31;15.00;99.90
6357;DHT22;3211;53.452;-2.264;2022-07-23T04:53:13;15.10;99.90
6357;DHT22;3211;53.452;-2.264;2022-07-23T04:55:57;15.10;99.90
6357;DHT22;3211;53.452;-2.264;2022-07-23T04:58:39;15.20;99.90
6357;DHT22;3211;53.452;-2.264;2022-07-23T05:01:21;15.20;99.90
6357;DHT22;3211;53.452;-2.264;2022-07-23T05:04:03;15.20;99.90
6357;DHT22;3211;53.452;-2.264;2022-07-23T05:06:45;15.30;99.90
6357;DHT22;3211;53.452;-2.264;2022-07-23T05:09:27;15.30;99.90
6357;DHT22;3211;53.452;-2.264;2022-07-23T05:12:10;15.30;99.90
6357;DHT22;3211;53.452;-2.264;2022-07-23T05:14:52;15.40;99.90
6357;DHT22;3211;53.452;-2.264;2022-07-23T05:17:34;15.40;99.90
6357;DHT22;3211;53.452;-2.264;2022-07-23T05:20:16;15.50;99.90
6357;DHT22;3211;53.452;-2.264;2022-07-23T05:22:58;15.50;99.90
6357;DHT22;3211;53.452;-2.264;2022-07-23T05:25:40;15.60;99.90
6357;DHT22;3211;53.452;-2.264;2022-07-23T05:28:23;15.60;99.90
6357;DHT22;3211;53.452;-2.264;2022-07-23T05:31:05;15.60;99.90
6357;DHT22;3211;53.452;-2.264;2022-07-23T05:33:47;15.80;99.90
6357;DHT22;3211;53.452;-2.264;2022-07-23T05:36:31;15.80;99.90
6357;DHT22;3211;53.452;-2.264;2022-07-23T05:39:13;15.90;99.90
6357;DHT22;3211;53.452;-2.264;2022-07-23T05:41:55;15.80;99.90
6357;DHT22;3211;53.452;-2.264;2022-07-23T05:44:39;15.90;99.90
6357;DHT22;3211;53.452;-2.264;2022-07-23T05:47:21;15.90;99.90
6357;DHT22;3211;53.452;-2.264;2022-07-23T05:50:04;15.90;99.90
6357;DHT22;3211;53.452;-2.264;2022-07-23T05:52:46;15.90;99.90
6357;DHT22;3211;53.452;-2.264;2022-07-23T05:55:28;16.00;99.90
6357;DHT22;3211;53.452;-2.264;2022-07-23T05:58:12;16.10;99.90
6357;DHT22;3211;53.452;-2.264;2022-07-23T06:00:55;16.20;99.90
6357;DHT22;3211;53.452;-2.264;2022-07-23T06:03:37;16.10;99.90
6357;DHT22;3211;53.452;-2.264;2022-07-23T06:06:19;16.30;99.90
6357;DHT22;3211;53.452;-2.264;2022-07-23T06:09:01;16.50;99.90
6357;DHT22;3211;53.452;-2.264;2022-07-23T06:11:43;16.50;99.90
6357;DHT22;3211;53.452;-2.264;2022-07-23T06:14:25;16.60;99.90
6357;DHT22;3211;53.452;-2.264;2022-07-23T06:17:09;16.50;99.90
6357;DHT22;3211;53.452;-2.264;2022-07-23T06:19:51;16.20;99.90
6357;DHT22;3211;53.452;-2.264;2022-07-23T06:22:33;16.30;99.90
6357;DHT22;3211;53.452;-2.264;2022-07-23T06:25:14;16.30;99.90
6357;DHT22;3211;53.452;-2.264;2022-07-23T06:27:57;16.30;99.90
6357;DHT22;3211;53.452;-2.264;2022-07-23T06:30:39;16.50;99.90
6357;DHT22;3211;53.452;-2.264;2022-07-23T06:33:22;16.40;99.90
6357;DHT22;3211;53.452;-2.264;2022-07-23T06:36:05;16.40;99.90
6357;DHT22;3211;53.452;-2.264;2022-07-23T06:38:46;16.60;99.90
6357;DHT22;3211;53.452;-2.264;2022-07-23T06:41:28;16.70;99.90
6357;DHT22;3211;53.452;-2.264;2022-07-23T06:44:10;16.70;99.90
6357;DHT22;3211;53.452;-2.264;2022-07-23T06:46:53;16.80;99.90
6357;DHT22;3211;53.452;-2.264;2022-07-23T06:49:36;16.90;99.90
6357;DHT22;3211;53.452;-2.264;2022-07-23T06:52:18;16.70;99.90
6357;DHT22;3211;53.452;-2.264;2022-07-23T06:55:00;16.70;99.90
6357;DHT22;3211;53.452;-2.264;2022-07-23T06:57:42;16.70;99.90
6357;DHT22;3211;53.452;-2.264;2022-07-23T07:00:24;16.70;99.90
6357;DHT22;3211;53.452;-2.264;2022-07-23T07:03:07;16.90;99.90
6357;DHT22;3211;53.452;-2.264;2022-07-23T07:05:50;16.80;99.90
6357;DHT22;3211;53.452;-2.264;2022-07-23T07:08:32;16.70;99.90
6357;DHT22;3211;53.452;-2.264;2022-07-23T07:11:14;16.60;99.90
6357;DHT22;3211;53.452;-2.264;2022-07-23T07:13:56;16.60;99.90
6357;DHT22;3211;53.452;-2.264;2022-07-23T07:16:38;16.70;99.90
6357;DHT22;3211;53.452;-2.264;2022-07-23T07:19:20;16.80;99.90
6357;DHT22;3211;53.452;-2.264;2022-07-23T07:22:03;16.70;99.90
6357;DHT22;3211;53.452;-2.264;2022-07-23T07:24:45;16.70;99.90
6357;DHT22;3211;53.452;-2.264;2022-07-23T07:27:27;16.80;99.90
6357;DHT22;3211;53.452;-2.264;2022-07-23T07:30:10;16.80;99.90
6357;DHT22;3211;53.452;-2.264;2022-07-23T07:32:52;16.80;99.90
6357;DHT22;3211;53.452;-2.264;2022-07-23T07:35:34;16.80;99.90
6357;DHT22;3211;53.452;-2.264;2022-07-23T07:38:18;17.00;99.90
6357;DHT22;3211;53.452;-2.264;2022-07-23T07:41:00;17.00;99.90
6357;DHT22;3211;53.452;-2.264;2022-07-23T07:43:42;17.10;99.90
6357;DHT22;3211;53.452;-2.264;2022-07-23T07:46:24;17.30;99.90
6357;DHT22;3211;53.452;-2.264;2022-07-23T07:49:08;17.20;99.90
6357;DHT22;3211;53.452;-2.264;2022-07-23T07:51:50;17.20;99.90
6357;DHT22;3211;53.452;-2.264;2022-07-23T07:54:33;17.00;99.90
6357;DHT22;3211;53.452;-2.264;2022-07-23T07:57:15;17.10;99.90
6357;DHT22;3211;53.452;-2.264;2022-07-23T07:59:57;17.10;99.90
6357;DHT22;3211;53.452;-2.264;2022-07-23T08:02:41;17.20;99.90
6357;DHT22;3211;53.452;-2.264;2022-07-23T08:05:24;17.30;99.90
6357;DHT22;3211;53.452;-2.264;2022-07-23T08:08:06;17.50;99.90
6357;DHT22;3211;53.452;-2.264;2022-07-23T08:10:51;17.90;99.90
6357;DHT22;3211;53.452;-2.264;2022-07-23T08:13:33;17.80;99.90
6357;DHT22;3211;53.452;-2.264;2022-07-23T08:16:19;17.90;99.90
6357;DHT22;3211;53.452;-2.264;2022-07-23T08:19:04;17.80;99.90
6357;DHT22;3211;53.452;-2.264;2022-07-23T08:21:46;17.70;99.90
6357;DHT22;3211;53.452;-2.264;2022-07-23T08:24:28;17.80;99.90
6357;DHT22;3211;53.452;-2.264;2022-07-23T08:27:12;17.70;99.90
6357;DHT22;3211;53.452;-2.264;2022-07-23T08:29:53;17.90;99.90
6357;DHT22;3211;53.452;-2.264;2022-07-23T08:32:48;18.00;99.90
6357;DHT22;3211;53.452;-2.264;2022-07-23T08:35:32;17.90;99.90
6357;DHT22;3211;53.452;-2.264;2022-07-23T08:38:15;17.90;99.90
6357;DHT22;3211;53.452;-2.264;2022-07-23T08:40:57;18.10;99.90
6357;DHT22;3211;53.452;-2.264;2022-07-23T08:43:41;18.30;99.90
6357;DHT22;3211;53.452;-2.264;2022-07-23T08:46:24;18.30;99.90
6357;DHT22;3211;53.452;-2.264;2022-07-23T08:49:06;18.20;99.90
6357;DHT22;3211;53.452;-2.264;2022-07-23T08:51:49;18.00;99.90
6357;DHT22;3211;53.452;-2.264;2022-07-23T08:54:31;18.10;99.90
6357;DHT22;3211;53.452;-2.264;2022-07-23T08:57:13;18.30;99.90
6357;DHT22;3211;53.452;-2.264;2022-07-23T08:59:58;18.40;99.90
6357;DHT22;3211;53.452;-2.264;2022-07-23T09:02:41;18.40;99.90
6357;DHT22;3211;53.452;-2.264;2022-07-23T09:05:24;18.40;99.90
6357;DHT22;3211;53.452;-2.264;2022-07-23T09:08:08;18.40;99.90
6357;DHT22;3211;53.452;-2.264;2022-07-23T09:10:52;18.40;99.90
6357;DHT22;3211;53.452;-2.264;2022-07-23T09:13:38;18.40;99.90
6357;DHT22;3211;53.452;-2.264;2022-07-23T09:16:26;18.60;99.90
6357;DHT22;3211;53.452;-2.264;2022-07-23T09:19:09;18.50;99.90
6357;DHT22;3211;53.452;-2.264;2022-07-23T09:21:52;18.70;99.90
6357;DHT22;3211;53.452;-2.264;2022-07-23T09:24:34;18.70;99.90
6357;DHT22;3211;53.452;-2.264;2022-07-23T09:27:16;18.90;99.90
6357;DHT22;3211;53.452;-2.264;2022-07-23T09:29:58;18.90;99.90
6357;DHT22;3211;53.452;-2.264;2022-07-23T09:32:42;18.80;99.90
6357;DHT22;3211;53.452;-2.264;2022-07-23T09:35:44;18.90;99.90
6357;DHT22;3211;53.452;-2.264;2022-07-23T09:38:26;19.00;99.90
6357;DHT22;3211;53.452;-2.264;2022-07-23T09:41:09;19.00;99.90
6357;DHT22;3211;53.452;-2.264;2022-07-23T09:43:57;19.00;99.90
6357;DHT22;3211;53.452;-2.264;2022-07-23T09:46:42;19.00;99.90
6357;DHT22;3211;53.452;-2.264;2022-07-23T09:49:25;19.10;99.90
6357;DHT22;3211;53.452;-2.264;2022-07-23T09:52:07;19.00;99.90
6357;DHT22;3211;53.452;-2.264;2022-07-23T09:54:57;18.90;99.90
6357;DHT22;3211;53.452;-2.264;2022-07-23T09:57:41;18.90;99.90
6357;DHT22;3211;53.452;-2.264;2022-07-23T10:00:25;19.00;99.90
6357;DHT22;3211;53.452;-2.264;2022-07-23T10:03:08;19.20;99.90
6357;DHT22;3211;53.452;-2.264;2022-07-23T10:05:53;19.20;99.90
6357;DHT22;3211;53.452;-2.264;2022-07-23T10:08:35;19.20;99.90
6357;DHT22;3211;53.452;-2.264;2022-07-23T10:11:17;19.10;99.90
6357;DHT22;3211;53.452;-2.264;2022-07-23T10:13:59;19.00;99.90
6357;DHT22;3211;53.452;-2.264;2022-07-23T10:16:42;18.90;99.90
6357;DHT22;3211;53.452;-2.264;2022-07-23T10:19:25;18.90;99.90
6357;DHT22;3211;53.452;-2.264;2022-07-23T10:22:11;18.90;99.90
6357;DHT22;3211;53.452;-2.264;2022-07-23T10:25:00;19.00;99.90
6357;DHT22;3211;53.452;-2.264;2022-07-23T10:28:03;18.90;99.90
6357;DHT22;3211;53.452;-2.264;2022-07-23T10:30:51;19.10;99.90
6357;DHT22;3211;53.452;-2.264;2022-07-23T10:33:46;18.90;99.90
6357;DHT22;3211;53.452;-2.264;2022-07-23T10:36:47;18.80;99.90
6357;DHT22;3211;53.452;-2.264;2022-07-23T10:39:33;18.90;99.90
6357;DHT22;3211;53.452;-2.264;2022-07-23T10:42:17;18.90;99.90
6357;DHT22;3211;53.452;-2.264;2022-07-23T10:45:00;18.80;99.90
6357;DHT22;3211;53.452;-2.264;2022-07-23T10:47:42;18.50;99.90
6357;DHT22;3211;53.452;-2.264;2022-07-23T10:50:25;18.50;99.90
6357;DHT22;3211;53.452;-2.264;2022-07-23T10:53:10;18.50;99.90
6357;DHT22;3211;53.452;-2.264;2022-07-23T10:55:55;18.50;99.90
6357;DHT22;3211;53.452;-2.264;2022-07-23T10:58:48;18.60;99.90
6357;DHT22;3211;53.452;-2.264;2022-07-23T11:01:34;18.30;99.90
6357;DHT22;3211;53.452;-2.264;2022-07-23T11:04:16;18.20;99.90
6357;DHT22;3211;53.452;-2.264;2022-07-23T11:07:08;18.20;99.90
6357;DHT22;3211;53.452;-2.264;2022-07-23T11:09:53;18.30;99.90
6357;DHT22;3211;53.452;-2.264;2022-07-23T11:12:36;18.20;99.90
6357;DHT22;3211;53.452;-2.264;2022-07-23T11:15:18;18.20;99.90
6357;DHT22;3211;53.452;-2.264;2022-07-23T11:18:00;18.40;99.90
6357;DHT22;3211;53.452;-2.264;2022-07-23T11:20:42;18.30;99.90
6357;DHT22;3211;53.452;-2.264;2022-07-23T11:23:59;18.30;99.90
6357;DHT22;3211;53.452;-2.264;2022-07-23T11:26:48;18.40;99.90
6357;DHT22;3211;53.452;-2.264;2022-07-23T11:29:48;18.50;99.90
6357;DHT22;3211;53.452;-2.264;2022-07-23T11:32:38;18.80;99.90
6357;DHT22;3211;53.452;-2.264;2022-07-23T11:35:27;18.50;99.90
6357;DHT22;3211;53.452;-2.264;2022-07-23T11:38:14;18.60;99.90
6357;DHT22;3211;53.452;-2.264;2022-07-23T11:40:56;18.50;99.90
6357;DHT22;3211;53.452;-2.264;2022-07-23T11:43:38;18.70;99.90
6357;DHT22;3211;53.452;-2.264;2022-07-23T11:46:22;18.50;99.90
6357;DHT22;3211;53.452;-2.264;2022-07-23T11:49:04;18.30;99.90
6357;DHT22;3211;53.452;-2.264;2022-07-23T11:51:45;18.20;99.90
6357;DHT22;3211;53.452;-2.264;2022-07-23T11:54:28;18.00;99.90
6357;DHT22;3211;53.452;-2.264;2022-07-23T11:57:09;17.80;99.90
6357;DHT22;3211;53.452;-2.264;2022-07-23T11:59:54;17.80;99.90
6357;DHT22;3211;53.452;-2.264;2022-07-23T12:02:38;17.70;99.90
6357;DHT22;3211;53.452;-2.264;2022-07-23T12:05:21;17.60;99.90
6357;DHT22;3211;53.452;-2.264;2022-07-23T12:08:05;17.70;99.90
6357;DHT22;3211;53.452;-2.264;2022-07-23T12:10:47;17.70;99.90
6357;DHT22;3211;53.452;-2.264;2022-07-23T12:13:29;17.70;99.90
6357;DHT22;3211;53.452;-2.264;2022-07-23T12:16:11;17.80;99.90
6357;DHT22;3211;53.452;-2.264;2022-07-23T12:18:54;17.80;99.90
6357;DHT22;3211;53.452;-2.264;2022-07-23T12:21:37;17.70;99.90
6357;DHT22;3211;53.452;-2.264;2022-07-23T12:24:19;17.70;99.90
6357;DHT22;3211;53.452;-2.264;2022-07-23T12:27:08;17.60;99.90
6357;DHT22;3211;53.452;-2.264;2022-07-23T12:29:50;17.70;99.90
6357;DHT22;3211;53.452;-2.264;2022-07-23T12:32:32;17.70;99.90
6357;DHT22;3211;53.452;-2.264;2022-07-23T12:35:17;17.60;99.90
6357;DHT22;3211;53.452;-2.264;2022-07-23T12:38:01;17.80;99.90
6357;DHT22;3211;53.452;-2.264;2022-07-23T12:40:45;17.70;99.90
6357;DHT22;3211;53.452;-2.264;2022-07-23T12:43:29;17.80;99.90
6357;DHT22;3211;53.452;-2.264;2022-07-23T12:46:14;18.00;99.90
6357;DHT22;3211;53.452;-2.264;2022-07-23T12:48:56;18.00;99.90
6357;DHT22;3211;53.452;-2.264;2022-07-23T12:51:39;18.00;99.90
6357;DHT22;3211;53.452;-2.264;2022-07-23T12:54:27;18.20;99.90
6357;DHT22;3211;53.452;-2.264;2022-07-23T12:57:09;18.20;99.90
6357;DHT22;3211;53.452;-2.264;2022-07-23T12:59:51;18.20;99.90
6357;DHT22;3211;53.452;-2.264;2022-07-23T13:02:45;18.40;99.90
6357;DHT22;3211;53.452;-2.264;2022-07-23T13:05:27;18.20;99.90
6357;DHT22;3211;53.452;-2.264;2022-07-23T13:08:11;18.10;99.90
6357;DHT22;3211;53.452;-2.264;2022-07-23T13:10:53;18.10;99.90
6357;DHT22;3211;53.452;-2.264;2022-07-23T13:13:35;18.20;99.90
6357;DHT22;3211;53.452;-2.264;2022-07-23T13:16:17;18.20;99.90
6357;DHT22;3211;53.452;-2.264;2022-07-23T13:19:00;18.10;99.90
6357;DHT22;3211;53.452;-2.264;2022-07-23T13:21:42;18.10;99.90
6357;DHT22;3211;53.452;-2.264;2022-07-23T13:24:26;18.30;99.90
6357;DHT22;3211;53.452;-2.264;2022-07-23T13:27:08;18.20;99.90
6357;DHT22;3211;53.452;-2.264;2022-07-23T13:29:50;18.40;99.90
6357;DHT22;3211;53.452;-2.264;2022-07-23T13:32:31;18.60;99.90
6357;DHT22;3211;53.452;-2.264;2022-07-23T13:35:13;18.50;99.90
6357;DHT22;3211;53.452;-2.264;2022-07-23T13:37:55;18.60;99.90
6357;DHT22;3211;53.452;-2.264;2022-07-23T13:40:40;18.60;99.90
6357;DHT22;3211;53.452;-2.264;2022-07-23T13:43:25;18.80;99.90
6357;DHT22;3211;53.452;-2.264;2022-07-23T13:46:07;18.80;99.90
6357;DHT22;3211;53.452;-2.264;2022-07-23T13:48:49;18.80;99.90
6357;DHT22;3211;53.452;-2.264;2022-07-23T13:51:31;18.90;99.90
6357;DHT22;3211;53.452;-2.264;2022-07-23T13:54:13;18.80;99.90
6357;DHT22;3211;53.452;-2.264;2022-07-23T13:56:56;18.80;99.90
6357;DHT22;3211;53.452;-2.264;2022-07-23T13:59:38;18.60;99.90
6357;DHT22;3211;53.452;-2.264;2022-07-23T14:02:20;18.70;99.90
6357;DHT22;3211;53.452;-2.264;2022-07-23T14:05:03;18.70;99.90
6357;DHT22;3211;53.452;-2.264;2022-07-23T14:07:45;18.90;99.90
6357;DHT22;3211;53.452;-2.264;2022-07-23T14:10:30;18.80;99.90
6357;DHT22;3211;53.452;-2.264;2022-07-23T14:13:13;18.90;99.90
6357;DHT22;3211;53.452;-2.264;2022-07-23T14:15:55;18.90;99.90
6357;DHT22;3211;53.452;-2.264;2022-07-23T14:18:41;18.90;99.90
6357;DHT22;3211;53.452;-2.264;2022-07-23T14:21:23;18.90;99.90
6357;DHT22;3211;53.452;-2.264;2022-07-23T14:24:05;19.00;99.90
6357;DHT22;3211;53.452;-2.264;2022-07-23T14:26:47;19.10;99.90
6357;DHT22;3211;53.452;-2.264;2022-07-23T14:29:31;19.30;99.90
6357;DHT22;3211;53.452;-2.264;2022-07-23T14:32:13;19.30;99.90
6357;DHT22;3211;53.452;-2.264;2022-07-23T14:34:55;19.50;99.90
6357;DHT22;3211;53.452;-2.264;2022-07-23T14:37:38;19.60;99.90
6357;DHT22;3211;53.452;-2.264;2022-07-23T14:40:21;19.70;99.90
6357;DHT22;3211;53.452;-2.264;2022-07-23T14:43:03;19.80;99.90
6357;DHT22;3211;53.452;-2.264;2022-07-23T14:45:46;20.00;99.90
6357;DHT22;3211;53.452;-2.264;2022-07-23T14:48:28;20.10;99.90
6357;DHT22;3211;53.452;-2.264;2022-07-23T14:51:10;20.30;99.90
6357;DHT22;3211;53.452;-2.264;2022-07-23T14:53:52;20.30;99.90
6357;DHT22;3211;53.452;-2.264;2022-07-23T14:56:34;20.30;99.90
6357;DHT22;3211;53.452;-2.264;2022-07-23T14:59:16;20.20;99.90
6357;DHT22;3211;53.452;-2.264;2022-07-23T15:02:00;20.30;99.90
6357;DHT22;3211;53.452;-2.264;2022-07-23T15:04:42;20.70;99.90
6357;DHT22;3211;53.452;-2.264;2022-07-23T15:07:24;21.40;99.90
6357;DHT22;3211;53.452;-2.264;2022-07-23T15:10:07;21.60;99.90
6357;DHT22;3211;53.452;-2.264;2022-07-23T15:12:49;21.30;99.90
6357;DHT22;3211;53.452;-2.264;2022-07-23T15:15:31;21.00;99.90
6357;DHT22;3211;53.452;-2.264;2022-07-23T15:18:14;20.80;99.90
6357;DHT22;3211;53.452;-2.264;2022-07-23T15:20:56;20.70;99.90
6357;DHT22;3211;53.452;-2.264;2022-07-23T15:23:39;20.60;99.90
6357;DHT22;3211;53.452;-2.264;2022-07-23T15:26:21;20.50;99.90
6357;DHT22;3211;53.452;-2.264;2022-07-23T15:29:03;20.50;99.90
6357;DHT22;3211;53.452;-2.264;2022-07-23T15:31:46;20.40;99.90
6357;DHT22;3211;53.452;-2.264;2022-07-23T15:34:30;20.30;99.90
6357;DHT22;3211;53.452;-2.264;2022-07-23T15:37:12;20.30;99.90
6357;DHT22;3211;53.452;-2.264;2022-07-23T15:39:54;20.30;99.90
6357;DHT22;3211;53.452;-2.264;2022-07-23T15:42:36;20.30;99.90
6357;DHT22;3211;53.452;-2.264;2022-07-23T15:45:18;20.40;99.90
6357;DHT22;3211;53.452;-2.264;2022-07-23T15:48:00;20.40;99.90
6357;DHT22;3211;53.452;-2.264;2022-07-23T15:50:44;20.40;99.90
6357;DHT22;3211;53.452;-2.264;2022-07-23T15:53:26;20.40;99.90
6357;DHT22;3211;53.452;-2.264;2022-07-23T15:56:09;20.40;99.90
6357;DHT22;3211;53.452;-2.264;2022-07-23T15:58:51;20.50;99.90
6357;DHT22;3211;53.452;-2.264;2022-07-23T16:01:33;20.50;99.90
6357;DHT22;3211;53.452;-2.264;2022-07-23T16:04:15;20.50;99.90
6357;DHT22;3211;53.452;-2.264;2022-07-23T16:06:59;20.50;99.90
6357;DHT22;3211;53.452;-2.264;2022-07-23T16:09:41;20.50;99.90
6357;DHT22;3211;53.452;-2.264;2022-07-23T16:12:23;20.50;99.90
6357;DHT22;3211;53.452;-2.264;2022-07-23T16:15:05;20.60;99.90
6357;DHT22;3211;53.452;-2.264;2022-07-23T16:17:47;20.50;99.90
6357;DHT22;3211;53.452;-2.264;2022-07-23T16:20:29;20.40;99.90
6357;DHT22;3211;53.452;-2.264;2022-07-23T16:23:13;20.40;99.90
6357;DHT22;3211;53.452;-2.264;2022-07-23T16:25:55;20.50;99.90
6357;DHT22;3211;53.452;-2.264;2022-07-23T16:28:37;20.50;99.90
6357;DHT22;3211;53.452;-2.264;2022-07-23T16:31:19;20.50;99.90
6357;DHT22;3211;53.452;-2.264;2022-07-23T16:34:01;20.60;99.90
6357;DHT22;3211;53.452;-2.264;2022-07-23T16:36:43;20.60;99.90
6357;DHT22;3211;53.452;-2.264;2022-07-23T16:39:26;20.60;99.90
6357;DHT22;3211;53.452;-2.264;2022-07-23T16:42:08;20.70;99.90
6357;DHT22;3211;53.452;-2.264;2022-07-23T16:44:50;20.70;99.90
6357;DHT22;3211;53.452;-2.264;2022-07-23T16:47:33;20.70;99.90
6357;DHT22;3211;53.452;-2.264;2022-07-23T16:50:15;20.70;99.90
6357;DHT22;3211;53.452;-2.264;2022-07-23T16:52:57;20.70;99.90
6357;DHT22;3211;53.452;-2.264;2022-07-23T16:55:40;20.80;99.90
6357;DHT22;3211;53.452;-2.264;2022-07-23T16:58:22;20.80;99.90
6357;DHT22;3211;53.452;-2.264;2022-07-23T17:01:05;20.70;99.90
6357;DHT22;3211;53.452;-2.264;2022-07-23T17:03:47;20.80;99.90
6357;DHT22;3211;53.452;-2.264;2022-07-23T17:06:29;20.80;99.90
6357;DHT22;3211;53.452;-2.264;2022-07-23T17:09:10;20.80;99.90
6357;DHT22;3211;53.452;-2.264;2022-07-23T17:11:54;20.80;99.90
6357;DHT22;3211;53.452;-2.264;2022-07-23T17:14:36;20.80;99.90
6357;DHT22;3211;53.452;-2.264;2022-07-23T17:17:18;20.90;99.90
6357;DHT22;3211;53.452;-2.264;2022-07-23T17:20:00;20.80;99.90
6357;DHT22;3211;53.452;-2.264;2022-07-23T17:22:42;20.80;99.90
6357;DHT22;3211;53.452;-2.264;2022-07-23T17:25:25;20.80;99.90